sensor_id;sensor_type;location;lat;lon;timestamp;pressure;altitude;pressure_sealevel;temperature;humidity
45872;BME280;32333;55.844;-3.210;2022-09-09T00:02:20;98560.97;;;13.91;100.00
45872;BME280;32333;55.844;-3.210;2022-09-09T00:04:58;98561.02;;;14.17;100.00
45872;BME280;32333;55.844;-3.210;2022-09-09T00:07:36;98565.11;;;13.57;100.00
45872;BME280;32333;55.844;-3.210;2022-09-09T00:10:16;98564.64;;;13.83;100.00
45872;BME280;32333;55.844;-3.210;2022-09-09T00:14:43;98571.95;;;13.63;100.00
45872;BME280;32333;55.844;-3.210;2022-09-09T00:17:23;98568.50;;;14.05;100.00
45872;BME280;32333;55.844;-3.210;2022-09-09T00:19:58;98573.70;;;13.76;100.00
45872;BME280;32333;55.844;-3.210;2022-09-09T00:22:31;98572.67;;;14.02;100.00
45872;BME280;32333;55.844;-3.210;2022-09-09T00:25:08;98576.25;;;12.81;100.00
45872;BME280;32333;55.844;-3.210;2022-09-09T00:27:44;98580.81;;;13.52;100.00
45872;BME280;32333;55.844;-3.210;2022-09-09T00:30:18;98584.37;;;13.66;100.00
45872;BME280;32333;55.844;-3.210;2022-09-09T00:32:47;98583.53;;;13.56;100.00
45872;BME280;32333;55.844;-3.210;2022-09-09T00:35:21;98582.39;;;13.17;100.00
45872;BME280;32333;55.844;-3.210;2022-09-09T00:37:52;98585.72;;;13.69;100.00
45872;BME280;32333;55.844;-3.210;2022-09-09T00:40:26;98585.31;;;14.02;100.00
45872;BME280;32333;55.844;-3.210;2022-09-09T00:44:37;98585.56;;;13.85;100.00
45872;BME280;32333;55.844;-3.210;2022-09-09T00:47:17;98587.91;;;13.13;100.00
45872;BME280;32333;55.844;-3.210;2022-09-09T00:49:56;98584.36;;;14.13;100.00
45872;BME280;32333;55.844;-3.210;2022-09-09T00:52:39;98590.54;;;13.87;100.00
45872;BME280;32333;55.844;-3.210;2022-09-09T00:55:15;98586.70;;;14.30;100.00
45872;BME280;32333;55.844;-3.210;2022-09-09T00:57:43;98591.19;;;14.08;100.00
45872;BME280;32333;55.844;-3.210;2022-09-09T01:00:25;98589.86;;;13.97;100.00
45872;BME280;32333;55.844;-3.210;2022-09-09T01:03:05;98593.62;;;14.38;100.00
45872;BME280;32333;55.844;-3.210;2022-09-09T01:05:46;98596.49;;;13.36;100.00
45872;BME280;32333;55.844;-3.210;2022-09-09T01:08:31;98597.82;;;12.94;100.00
45872;BME280;32333;55.844;-3.210;2022-09-09T01:11:04;98603.10;;;13.54;100.00
45872;BME280;32333;55.844;-3.210;2022-09-09T01:14:42;98603.18;;;14.26;100.00
45872;BME280;32333;55.844;-3.210;2022-09-09T01:17:36;98606.82;;;13.75;100.00
45872;BME280;32333;55.844;-3.210;2022-09-09T01:20:13;98603.60;;;14.23;100.00
45872;BME280;32333;55.844;-3.210;2022-09-09T01:22:52;98607.23;;;13.30;100.00
45872;BME280;32333;55.844;-3.210;2022-09-09T01:26:18;98613.17;;;13.92;100.00
45872;BME280;32333;55.844;-3.210;2022-09-09T01:28:49;98614.21;;;14.07;100.00
45872;BME280;32333;55.844;-3.210;2022-09-09T01:31:21;98617.29;;;13.65;100.00
45872;BME280;32333;55.844;-3.210;2022-09-09T01:33:53;98619.12;;;15.04;100.00
45872;BME280;32333;55.844;-3.210;2022-09-09T01:36:31;98624.33;;;13.45;100.00
45872;BME280;32333;55.844;-3.210;2022-09-09T01:39:04;98625.19;;;14.08;100.00
45872;BME280;32333;55.844;-3.210;2022-09-09T01:41:32;98624.32;;;14.13;100.00
45872;BME280;32333;55.844;-3.210;2022-09-09T01:44:37;98624.96;;;14.19;100.00
45872;BME280;32333;55.844;-3.210;2022-09-09T01:47:05;98622.82;;;14.02;100.00
45872;BME280;32333;55.844;-3.210;2022-09-09T01:49:33;98631.81;;;13.59;100.00
45872;BME280;32333;55.844;-3.210;2022-09-09T01:52:01;98632.16;;;13.77;100.00
45872;BME280;32333;55.844;-3.210;2022-09-09T01:54:31;98630.48;;;13.66;100.00
45872;BME280;32333;55.844;-3.210;2022-09-09T01:57:07;98634.79;;;14.20;100.00
45872;BME280;32333;55.844;-3.210;2022-09-09T01:59:48;98632.02;;;13.51;100.00
45872;BME280;32333;55.844;-3.210;2022-09-09T02:02:26;98637.22;;;13.61;100.00
45872;BME280;32333;55.844;-3.210;2022-09-09T02:05:09;98637.15;;;13.61;100.00
45872;BME280;32333;55.844;-3.210;2022-09-09T02:07:41;98640.36;;;13.96;100.00
45872;BME280;32333;55.844;-3.210;2022-09-09T02:10:12;98641.11;;;13.75;100.00
45872;BME280;32333;55.844;-3.210;2022-09-09T02:14:39;98641.86;;;13.37;100.00
45872;BME280;32333;55.844;-3.210;2022-09-09T02:17:15;98639.68;;;13.57;100.00
45872;BME280;32333;55.844;-3.210;2022-09-09T02:19:49;98646.02;;;13.87;100.00
45872;BME280;32333;55.844;-3.210;2022-09-09T02:22:22;98643.96;;;14.49;100.00
45872;BME280;32333;55.844;-3.210;2022-09-09T02:24:57;98645.25;;;13.36;100.00
45872;BME280;32333;55.844;-3.210;2022-09-09T02:27:27;98646.73;;;13.65;100.00
45872;BME280;32333;55.844;-3.210;2022-09-09T02:29:57;98647.91;;;13.87;100.00
45872;BME280;32333;55.844;-3.210;2022-09-09T02:32:35;98649.93;;;13.67;100.00
45872;BME280;32333;55.844;-3.210;2022-09-09T02:35:08;98653.77;;;13.30;100.00
45872;BME280;32333;55.844;-3.210;2022-09-09T02:37:38;98654.47;;;14.08;100.00
45872;BME280;32333;55.844;-3.210;2022-09-09T02:40:10;98654.73;;;14.32;100.00
45872;BME280;32333;55.844;-3.210;2022-09-09T02:44:36;98656.00;;;13.91;100.00
45872;BME280;32333;55.844;-3.210;2022-09-09T02:47:14;98657.32;;;13.67;100.00
45872;BME280;32333;55.844;-3.210;2022-09-09T02:49:55;98659.39;;;13.79;100.00
45872;BME280;32333;55.844;-3.210;2022-09-09T02:52:30;98658.37;;;14.19;100.00
45872;BME280;32333;55.844;-3.210;2022-09-09T02:55:04;98659.69;;;13.20;100.00
45872;BME280;32333;55.844;-3.210;2022-09-09T02:57:36;98658.88;;;12.15;100.00
45872;BME280;32333;55.844;-3.210;2022-09-09T03:00:14;98661.97;;;12.98;100.00
45872;BME280;32333;55.844;-3.210;2022-09-09T03:06:46;98661.88;;;13.38;100.00
45872;BME280;32333;55.844;-3.210;2022-09-09T03:09:19;98660.93;;;13.39;100.00
45872;BME280;32333;55.844;-3.210;2022-09-09T03:11:46;98659.98;;;12.99;100.00
45872;BME280;32333;55.844;-3.210;2022-09-09T03:14:37;98663.82;;;14.07;100.00
45872;BME280;32333;55.844;-3.210;2022-09-09T03:17:06;98663.61;;;14.32;100.00
45872;BME280;32333;55.844;-3.210;2022-09-09T03:19:34;98660.98;;;13.10;100.00
45872;BME280;32333;55.844;-3.210;2022-09-09T03:22:03;98660.20;;;13.60;100.00
45872;BME280;32333;55.844;-3.210;2022-09-09T03:24:31;98662.72;;;13.80;100.00
45872;BME280;32333;55.844;-3.210;2022-09-09T03:26:59;98662.65;;;13.21;100.00
45872;BME280;32333;55.844;-3.210;2022-09-09T03:29:27;98663.02;;;13.83;100.00
45872;BME280;32333;55.844;-3.210;2022-09-09T03:31:56;98660.87;;;14.06;100.00
45872;BME280;32333;55.844;-3.210;2022-09-09T03:34:24;98662.70;;;13.79;100.00
45872;BME280;32333;55.844;-3.210;2022-09-09T03:36:52;98661.67;;;12.68;100.00
45872;BME280;32333;55.844;-3.210;2022-09-09T03:39:20;98664.41;;;13.43;100.00
45872;BME280;32333;55.844;-3.210;2022-09-09T03:41:47;98667.16;;;12.98;100.00
45872;BME280;32333;55.844;-3.210;2022-09-09T03:44:36;98671.29;;;13.12;100.00
45872;BME280;32333;55.844;-3.210;2022-09-09T03:47:04;98667.25;;;13.78;100.00
45872;BME280;32333;55.844;-3.210;2022-09-09T03:49:31;98667.89;;;12.71;100.00
45872;BME280;32333;55.844;-3.210;2022-09-09T03:51:59;98667.59;;;14.07;100.00
45872;BME280;32333;55.844;-3.210;2022-09-09T03:54:27;98666.45;;;12.66;100.00
45872;BME280;32333;55.844;-3.210;2022-09-09T03:56:55;98667.75;;;13.17;100.00
45872;BME280;32333;55.844;-3.210;2022-09-09T03:59:23;98669.94;;;13.87;100.00
45872;BME280;32333;55.844;-3.210;2022-09-09T04:01:51;98672.56;;;13.32;100.00
45872;BME280;32333;55.844;-3.210;2022-09-09T04:04:19;98676.91;;;13.64;100.00
45872;BME280;32333;55.844;-3.210;2022-09-09T04:06:47;98679.48;;;14.63;100.00
45872;BME280;32333;55.844;-3.210;2022-09-09T04:09:15;98676.10;;;13.61;100.00
45872;BME280;32333;55.844;-3.210;2022-09-09T04:11:45;98677.37;;;13.71;100.00
45872;BME280;32333;55.844;-3.210;2022-09-09T04:14:35;98680.00;;;13.65;100.00
45872;BME280;32333;55.844;-3.210;2022-09-09T04:17:14;98679.44;;;13.62;100.00
45872;BME280;32333;55.844;-3.210;2022-09-09T04:19:44;98687.05;;;13.97;100.00
45872;BME280;32333;55.844;-3.210;2022-09-09T04:22:13;98689.83;;;13.74;100.00
45872;BME280;32333;55.844;-3.210;2022-09-09T04:24:42;98690.45;;;13.49;100.00
45872;BME280;32333;55.844;-3.210;2022-09-09T04:27:10;98692.81;;;14.13;100.00
45872;BME280;32333;55.844;-3.210;2022-09-09T04:29:38;98691.70;;;12.94;100.00
45872;BME280;32333;55.844;-3.210;2022-09-09T04:32:06;98693.76;;;13.00;100.00
45872;BME280;32333;55.844;-3.210;2022-09-09T04:34:33;98694.60;;;14.10;100.00
45872;BME280;32333;55.844;-3.210;2022-09-09T04:37:01;98692.90;;;13.44;100.00
45872;BME280;32333;55.844;-3.210;2022-09-09T04:39:30;98690.45;;;14.02;100.00
45872;BME280;32333;55.844;-3.210;2022-09-09T04:41:57;98692.74;;;14.72;100.00
45872;BME280;32333;55.844;-3.210;2022-09-09T04:44:39;98689.43;;;14.68;100.00
45872;BME280;32333;55.844;-3.210;2022-09-09T04:47:11;98687.99;;;13.83;100.00
45872;BME280;32333;55.844;-3.210;2022-09-09T04:49:39;98690.44;;;13.47;100.00
45872;BME280;32333;55.844;-3.210;2022-09-09T04:52:08;98692.20;;;13.83;100.00
45872;BME280;32333;55.844;-3.210;2022-09-09T04:54:36;98687.88;;;15.02;100.00
45872;BME280;32333;55.844;-3.210;2022-09-09T04:57:04;98690.64;;;14.40;100.00
45872;BME280;32333;55.844;-3.210;2022-09-09T04:59:32;98694.43;;;14.53;100.00
45872;BME280;32333;55.844;-3.210;2022-09-09T05:02:01;98692.12;;;14.69;100.00
45872;BME280;32333;55.844;-3.210;2022-09-09T05:04:29;98693.18;;;14.59;100.00
45872;BME280;32333;55.844;-3.210;2022-09-09T05:06:57;98698.96;;;14.75;100.00
45872;BME280;32333;55.844;-3.210;2022-09-09T05:09:25;98707.46;;;14.12;100.00
45872;BME280;32333;55.844;-3.210;2022-09-09T05:11:52;98709.04;;;13.05;100.00
45872;BME280;32333;55.844;-3.210;2022-09-09T05:14:35;98707.42;;;13.54;100.00
45872;BME280;32333;55.844;-3.210;2022-09-09T05:17:03;98706.61;;;14.16;100.00
45872;BME280;32333;55.844;-3.210;2022-09-09T05:19:31;98710.27;;;13.63;100.00
45872;BME280;32333;55.844;-3.210;2022-09-09T05:21:59;98708.00;;;12.80;100.00
45872;BME280;32333;55.844;-3.210;2022-09-09T05:24:27;98712.67;;;13.39;100.00
45872;BME280;32333;55.844;-3.210;2022-09-09T05:26:55;98714.26;;;12.61;100.00
45872;BME280;32333;55.844;-3.210;2022-09-09T05:29:23;98708.97;;;13.24;100.00
45872;BME280;32333;55.844;-3.210;2022-09-09T05:31:50;98712.89;;;13.05;100.00
45872;BME280;32333;55.844;-3.210;2022-09-09T05:34:19;98716.93;;;12.77;100.00
45872;BME280;32333;55.844;-3.210;2022-09-09T05:36:46;98720.15;;;12.77;100.00
45872;BME280;32333;55.844;-3.210;2022-09-09T05:39:14;98716.50;;;12.89;100.00
45872;BME280;32333;55.844;-3.210;2022-09-09T05:41:47;98726.67;;;12.68;100.00
45872;BME280;32333;55.844;-3.210;2022-09-09T05:44:36;98726.09;;;12.92;100.00
45872;BME280;32333;55.844;-3.210;2022-09-09T05:47:05;98724.05;;;12.94;100.00
45872;BME280;32333;55.844;-3.210;2022-09-09T05:49:34;98727.67;;;13.21;100.00
45872;BME280;32333;55.844;-3.210;2022-09-09T05:52:03;98725.03;;;13.34;100.00
45872;BME280;32333;55.844;-3.210;2022-09-09T05:54:30;98727.61;;;13.19;100.00
45872;BME280;32333;55.844;-3.210;2022-09-09T05:56:58;98729.65;;;13.07;100.00
45872;BME280;32333;55.844;-3.210;2022-09-09T05:59:26;98733.70;;;12.22;100.00
45872;BME280;32333;55.844;-3.210;2022-09-09T06:01:53;98734.94;;;12.61;100.00
45872;BME280;32333;55.844;-3.210;2022-09-09T06:04:22;98740.69;;;12.12;100.00
45872;BME280;32333;55.844;-3.210;2022-09-09T06:06:49;98747.04;;;11.94;100.00
45872;BME280;32333;55.844;-3.210;2022-09-09T06:09:16;98750.31;;;12.09;100.00
45872;BME280;32333;55.844;-3.210;2022-09-09T06:11:45;98750.97;;;12.12;100.00
45872;BME280;32333;55.844;-3.210;2022-09-09T06:14:37;98761.86;;;12.07;100.00
45872;BME280;32333;55.844;-3.210;2022-09-09T06:19:29;98763.53;;;13.20;100.00
45872;BME280;32333;55.844;-3.210;2022-09-09T06:26:03;98764.05;;;12.09;100.00
45872;BME280;32333;55.844;-3.210;2022-09-09T06:28:33;98771.09;;;12.46;100.00
45872;BME280;32333;55.844;-3.210;2022-09-09T06:31:07;98775.50;;;12.34;100.00
45872;BME280;32333;55.844;-3.210;2022-09-09T06:33:37;98778.77;;;13.07;100.00
45872;BME280;32333;55.844;-3.210;2022-09-09T06:36:05;98779.26;;;11.56;100.00
45872;BME280;32333;55.844;-3.210;2022-09-09T06:38:33;98782.56;;;11.16;100.00
45872;BME280;32333;55.844;-3.210;2022-09-09T06:41:01;98781.76;;;11.21;100.00
45872;BME280;32333;55.844;-3.210;2022-09-09T06:44:35;98784.41;;;11.79;100.00
45872;BME280;32333;55.844;-3.210;2022-09-09T06:47:03;98784.74;;;11.81;100.00
45872;BME280;32333;55.844;-3.210;2022-09-09T06:49:31;98790.50;;;12.13;100.00
45872;BME280;32333;55.844;-3.210;2022-09-09T06:51:58;98787.53;;;11.95;100.00
45872;BME280;32333;55.844;-3.210;2022-09-09T06:54:26;98790.04;;;11.44;100.00
45872;BME280;32333;55.844;-3.210;2022-09-09T06:56:53;98792.37;;;11.77;100.00
45872;BME280;32333;55.844;-3.210;2022-09-09T06:59:21;98797.32;;;11.84;100.00
45872;BME280;32333;55.844;-3.210;2022-09-09T07:01:48;98804.16;;;12.06;100.00
45872;BME280;32333;55.844;-3.210;2022-09-09T07:04:15;98800.68;;;11.91;100.00
45872;BME280;32333;55.844;-3.210;2022-09-09T07:06:44;98811.92;;;10.96;100.00
45872;BME280;32333;55.844;-3.210;2022-09-09T07:09:13;98810.78;;;12.04;100.00
45872;BME280;32333;55.844;-3.210;2022-09-09T07:11:42;98811.60;;;11.89;100.00
45872;BME280;32333;55.844;-3.210;2022-09-09T07:14:34;98821.87;;;11.78;100.00
45872;BME280;32333;55.844;-3.210;2022-09-09T07:17:02;98823.02;;;12.43;100.00
45872;BME280;32333;55.844;-3.210;2022-09-09T07:19:31;98828.12;;;11.84;100.00
45872;BME280;32333;55.844;-3.210;2022-09-09T07:21:59;98822.22;;;12.82;100.00
45872;BME280;32333;55.844;-3.210;2022-09-09T07:24:27;98822.66;;;12.06;100.00
45872;BME280;32333;55.844;-3.210;2022-09-09T07:26:55;98822.86;;;12.40;100.00
45872;BME280;32333;55.844;-3.210;2022-09-09T07:29:23;98829.59;;;11.96;100.00
45872;BME280;32333;55.844;-3.210;2022-09-09T07:31:50;98828.71;;;12.31;100.00
45872;BME280;32333;55.844;-3.210;2022-09-09T07:34:18;98827.75;;;11.45;100.00
45872;BME280;32333;55.844;-3.210;2022-09-09T07:36:45;98833.24;;;11.67;100.00
45872;BME280;32333;55.844;-3.210;2022-09-09T07:39:14;98840.35;;;11.81;100.00
45872;BME280;32333;55.844;-3.210;2022-09-09T07:41:43;98844.98;;;11.51;100.00
45872;BME280;32333;55.844;-3.210;2022-09-09T07:44:36;98850.72;;;11.21;100.00
45872;BME280;32333;55.844;-3.210;2022-09-09T07:47:04;98855.05;;;11.89;100.00
45872;BME280;32333;55.844;-3.210;2022-09-09T07:49:32;98857.78;;;11.89;100.00
45872;BME280;32333;55.844;-3.210;2022-09-09T07:51:59;98854.45;;;12.19;100.00
45872;BME280;32333;55.844;-3.210;2022-09-09T07:54:26;98855.93;;;12.29;100.00
45872;BME280;32333;55.844;-3.210;2022-09-09T07:56:54;98856.27;;;12.50;100.00
45872;BME280;32333;55.844;-3.210;2022-09-09T07:59:22;98858.51;;;12.02;100.00
45872;BME280;32333;55.844;-3.210;2022-09-09T08:01:51;98864.23;;;12.18;100.00
45872;BME280;32333;55.844;-3.210;2022-09-09T08:04:20;98866.90;;;12.11;100.00
45872;BME280;32333;55.844;-3.210;2022-09-09T08:06:50;98872.32;;;12.12;100.00
45872;BME280;32333;55.844;-3.210;2022-09-09T08:09:18;98873.18;;;11.73;100.00
45872;BME280;32333;55.844;-3.210;2022-09-09T08:11:45;98874.03;;;12.66;100.00
45872;BME280;32333;55.844;-3.210;2022-09-09T08:14:36;98888.77;;;11.78;100.00
45872;BME280;32333;55.844;-3.210;2022-09-09T08:17:04;98894.23;;;11.24;100.00
45872;BME280;32333;55.844;-3.210;2022-09-09T08:19:33;98898.06;;;11.91;100.00
45872;BME280;32333;55.844;-3.210;2022-09-09T08:22:01;98905.85;;;11.25;100.00
45872;BME280;32333;55.844;-3.210;2022-09-09T08:24:29;98917.03;;;11.22;100.00
45872;BME280;32333;55.844;-3.210;2022-09-09T08:26:58;98920.67;;;10.57;100.00
45872;BME280;32333;55.844;-3.210;2022-09-09T08:29:25;98923.78;;;11.11;100.00
45872;BME280;32333;55.844;-3.210;2022-09-09T08:31:55;98922.91;;;10.73;100.00
45872;BME280;32333;55.844;-3.210;2022-09-09T08:34:24;98928.12;;;11.13;100.00
45872;BME280;32333;55.844;-3.210;2022-09-09T08:36:51;98944.68;;;10.59;100.00
45872;BME280;32333;55.844;-3.210;2022-09-09T08:39:24;98943.22;;;10.89;100.00
45872;BME280;32333;55.844;-3.210;2022-09-09T08:50:05;98967.85;;;11.01;100.00
45872;BME280;32333;55.844;-3.210;2022-09-09T08:52:39;98972.96;;;10.66;100.00
45872;BME280;32333;55.844;-3.210;2022-09-09T08:55:21;98978.58;;;10.97;100.00
45872;BME280;32333;55.844;-3.210;2022-09-09T08:57:52;98980.41;;;10.60;100.00
45872;BME280;32333;55.844;-3.210;2022-09-09T09:00:22;98987.50;;;10.74;100.00
45872;BME280;32333;55.844;-3.210;2022-09-09T09:02:59;98991.67;;;10.64;100.00
45872;BME280;32333;55.844;-3.210;2022-09-09T09:05:37;98995.70;;;10.19;100.00
45872;BME280;32333;55.844;-3.210;2022-09-09T09:08:18;99001.20;;;10.97;100.00
45872;BME280;32333;55.844;-3.210;2022-09-09T09:10:49;99000.50;;;10.90;100.00
45872;BME280;32333;55.844;-3.210;2022-09-09T09:15:41;99016.38;;;10.93;100.00
45872;BME280;32333;55.844;-3.210;2022-09-09T09:18:15;99021.39;;;11.04;100.00
45872;BME280;32333;55.844;-3.210;2022-09-09T09:20:55;99024.58;;;11.17;100.00
45872;BME280;32333;55.844;-3.210;2022-09-09T09:23:33;99033.52;;;11.05;100.00
45872;BME280;32333;55.844;-3.210;2022-09-09T09:26:09;99037.93;;;11.15;100.00
45872;BME280;32333;55.844;-3.210;2022-09-09T09:28:39;99038.47;;;10.98;100.00
45872;BME280;32333;55.844;-3.210;2022-09-09T09:31:10;99039.90;;;11.35;100.00
45872;BME280;32333;55.844;-3.210;2022-09-09T09:33:45;99044.79;;;11.54;100.00
45872;BME280;32333;55.844;-3.210;2022-09-09T09:36:14;99045.84;;;11.13;100.00
45872;BME280;32333;55.844;-3.210;2022-09-09T09:38:54;99053.25;;;10.99;100.00
45872;BME280;32333;55.844;-3.210;2022-09-09T09:41:32;99056.76;;;10.59;100.00
45872;BME280;32333;55.844;-3.210;2022-09-09T09:44:36;99060.51;;;10.39;100.00
45872;BME280;32333;55.844;-3.210;2022-09-09T09:47:10;99063.68;;;11.40;100.00
45872;BME280;32333;55.844;-3.210;2022-09-09T09:49:39;99058.40;;;11.33;100.00
45872;BME280;32333;55.844;-3.210;2022-09-09T09:52:19;99059.62;;;11.15;100.00
45872;BME280;32333;55.844;-3.210;2022-09-09T09:54:48;99064.22;;;12.12;100.00
45872;BME280;32333;55.844;-3.210;2022-09-09T09:57:23;99067.65;;;11.81;100.00
45872;BME280;32333;55.844;-3.210;2022-09-09T10:02:44;99071.02;;;11.07;100.00
45872;BME280;32333;55.844;-3.210;2022-09-09T10:05:19;99072.22;;;10.71;100.00
45872;BME280;32333;55.844;-3.210;2022-09-09T10:08:16;99081.27;;;10.74;100.00
45872;BME280;32333;55.844;-3.210;2022-09-09T10:14:44;99090.13;;;10.92;100.00
45872;BME280;32333;55.844;-3.210;2022-09-09T10:45:04;99115.38;;;11.47;100.00
45872;BME280;32333;55.844;-3.210;2022-09-09T10:48:18;99116.24;;;11.37;100.00
45872;BME280;32333;55.844;-3.210;2022-09-09T10:50:58;99118.13;;;11.33;100.00
45872;BME280;32333;55.844;-3.210;2022-09-09T10:53:35;99116.35;;;11.35;100.00
45872;BME280;32333;55.844;-3.210;2022-09-09T10:56:09;99118.31;;;11.54;100.00
45872;BME280;32333;55.844;-3.210;2022-09-09T10:59:36;99122.05;;;11.81;100.00
45872;BME280;32333;55.844;-3.210;2022-09-09T11:03:02;99124.07;;;11.44;100.00
45872;BME280;32333;55.844;-3.210;2022-09-09T11:05:35;99122.71;;;11.83;100.00
45872;BME280;32333;55.844;-3.210;2022-09-09T11:08:12;99127.50;;;12.26;100.00
45872;BME280;32333;55.844;-3.210;2022-09-09T11:10:44;99141.90;;;12.15;100.00
45872;BME280;32333;55.844;-3.210;2022-09-09T11:14:40;99140.89;;;11.33;100.00
45872;BME280;32333;55.844;-3.210;2022-09-09T11:17:12;99148.03;;;11.38;100.00
45872;BME280;32333;55.844;-3.210;2022-09-09T11:19:44;99156.38;;;12.24;100.00
45872;BME280;32333;55.844;-3.210;2022-09-09T11:22:27;99148.78;;;12.37;100.00
45872;BME280;32333;55.844;-3.210;2022-09-09T11:25:01;99163.84;;;11.71;100.00
45872;BME280;32333;55.844;-3.210;2022-09-09T11:27:41;99159.04;;;11.28;100.00
45872;BME280;32333;55.844;-3.210;2022-09-09T11:30:19;99159.29;;;11.55;100.00
45872;BME280;32333;55.844;-3.210;2022-09-09T11:34:03;99160.86;;;11.52;100.00
45872;BME280;32333;55.844;-3.210;2022-09-09T11:36:48;99161.89;;;12.18;100.00
45872;BME280;32333;55.844;-3.210;2022-09-09T11:39:38;99158.18;;;12.06;100.00
45872;BME280;32333;55.844;-3.210;2022-09-09T11:44:35;99171.69;;;13.24;100.00
45872;BME280;32333;55.844;-3.210;2022-09-09T11:47:03;99173.51;;;13.68;100.00
45872;BME280;32333;55.844;-3.210;2022-09-09T11:49:41;99175.46;;;13.02;100.00
45872;BME280;32333;55.844;-3.210;2022-09-09T11:52:13;99184.45;;;13.37;100.00
45872;BME280;32333;55.844;-3.210;2022-09-09T11:54:49;99190.67;;;12.43;100.00
45872;BME280;32333;55.844;-3.210;2022-09-09T11:57:25;99191.98;;;12.76;100.00
45872;BME280;32333;55.844;-3.210;2022-09-09T11:59:53;99188.47;;;11.93;100.00
45872;BME280;32333;55.844;-3.210;2022-09-09T12:02:24;99193.18;;;11.48;100.00
45872;BME280;32333;55.844;-3.210;2022-09-09T12:04:57;99187.88;;;11.86;100.00
45872;BME280;32333;55.844;-3.210;2022-09-09T12:07:32;99185.25;;;12.56;100.00
45872;BME280;32333;55.844;-3.210;2022-09-09T12:10:05;99183.34;;;12.53;100.00
45872;BME280;32333;55.844;-3.210;2022-09-09T12:14:37;99185.40;;;12.96;100.00
45872;BME280;32333;55.844;-3.210;2022-09-09T12:17:18;99184.04;;;12.67;100.00
45872;BME280;32333;55.844;-3.210;2022-09-09T12:19:47;99182.35;;;12.23;100.00
45872;BME280;32333;55.844;-3.210;2022-09-09T12:22:22;99196.72;;;12.02;100.00
45872;BME280;32333;55.844;-3.210;2022-09-09T12:24:57;99203.87;;;12.26;100.00
45872;BME280;32333;55.844;-3.210;2022-09-09T12:27:30;99191.86;;;12.63;100.00
45872;BME280;32333;55.844;-3.210;2022-09-09T12:30:03;99202.69;;;11.63;100.00
45872;BME280;32333;55.844;-3.210;2022-09-09T12:32:31;99199.15;;;12.19;100.00
45872;BME280;32333;55.844;-3.210;2022-09-09T12:35:02;99204.08;;;11.97;100.00
45872;BME280;32333;55.844;-3.210;2022-09-09T12:37:34;99203.36;;;11.25;100.00
45872;BME280;32333;55.844;-3.210;2022-09-09T12:40:05;99217.00;;;11.06;100.00
45872;BME280;32333;55.844;-3.210;2022-09-09T12:44:35;99213.39;;;12.14;100.00
45872;BME280;32333;55.844;-3.210;2022-09-09T12:47:03;99213.10;;;12.24;100.00
45872;BME280;32333;55.844;-3.210;2022-09-09T12:49:34;99215.34;;;11.66;100.00
45872;BME280;32333;55.844;-3.210;2022-09-09T12:52:06;99221.16;;;11.96;100.00
45872;BME280;32333;55.844;-3.210;2022-09-09T12:54:36;99229.94;;;11.38;100.00
45872;BME280;32333;55.844;-3.210;2022-09-09T12:57:04;99238.52;;;11.28;100.00
45872;BME280;32333;55.844;-3.210;2022-09-09T12:59:37;99231.49;;;10.95;100.00
45872;BME280;32333;55.844;-3.210;2022-09-09T13:02:20;99226.17;;;10.84;100.00
45872;BME280;32333;55.844;-3.210;2022-09-09T13:04:49;99233.11;;;10.82;100.00
45872;BME280;32333;55.844;-3.210;2022-09-09T13:07:20;99236.54;;;11.01;100.00
45872;BME280;32333;55.844;-3.210;2022-09-09T13:09:49;99239.03;;;10.72;100.00
45872;BME280;32333;55.844;-3.210;2022-09-09T13:14:37;99240.77;;;11.14;100.00
45872;BME280;32333;55.844;-3.210;2022-09-09T13:17:15;99248.28;;;10.11;100.00
45872;BME280;32333;55.844;-3.210;2022-09-09T13:19:45;99243.38;;;11.07;100.00
45872;BME280;32333;55.844;-3.210;2022-09-09T13:22:14;99243.08;;;10.30;100.00
45872;BME280;32333;55.844;-3.210;2022-09-09T13:24:47;99239.43;;;10.12;100.00
45872;BME280;32333;55.844;-3.210;2022-09-09T13:27:28;99245.13;;;10.49;100.00
45872;BME280;32333;55.844;-3.210;2022-09-09T13:29:56;99244.43;;;10.46;100.00
45872;BME280;32333;55.844;-3.210;2022-09-09T13:32:25;99246.97;;;10.66;100.00
45872;BME280;32333;55.844;-3.210;2022-09-09T13:34:56;99242.40;;;11.24;100.00
45872;BME280;32333;55.844;-3.210;2022-09-09T13:37:28;99245.65;;;10.62;100.00
45872;BME280;32333;55.844;-3.210;2022-09-09T13:39:58;99282.47;;;9.74;100.00
45872;BME280;32333;55.844;-3.210;2022-09-09T13:44:38;99275.29;;;10.67;100.00
45872;BME280;32333;55.844;-3.210;2022-09-09T13:47:18;99273.33;;;10.25;100.00
45872;BME280;32333;55.844;-3.210;2022-09-09T13:49:46;99282.37;;;10.14;100.00
45872;BME280;32333;55.844;-3.210;2022-09-09T13:52:15;99280.18;;;10.19;100.00
45872;BME280;32333;55.844;-3.210;2022-09-09T13:54:48;99269.48;;;11.00;100.00
45872;BME280;32333;55.844;-3.210;2022-09-09T13:57:19;99275.66;;;10.49;100.00
45872;BME280;32333;55.844;-3.210;2022-09-09T13:59:47;99280.50;;;10.31;100.00
45872;BME280;32333;55.844;-3.210;2022-09-09T14:02:16;99279.69;;;9.89;100.00
45872;BME280;32333;55.844;-3.210;2022-09-09T14:04:44;99286.24;;;10.06;100.00
45872;BME280;32333;55.844;-3.210;2022-09-09T14:08:20;99289.36;;;10.20;100.00
45872;BME280;32333;55.844;-3.210;2022-09-09T14:10:48;99289.04;;;9.64;100.00
45872;BME280;32333;55.844;-3.210;2022-09-09T14:14:34;99288.07;;;9.78;100.00
45872;BME280;32333;55.844;-3.210;2022-09-09T14:17:02;99289.73;;;9.54;100.00
45872;BME280;32333;55.844;-3.210;2022-09-09T14:19:32;99278.98;;;10.60;100.00
45872;BME280;32333;55.844;-3.210;2022-09-09T14:22:00;99281.35;;;10.64;100.00
45872;BME280;32333;55.844;-3.210;2022-09-09T14:24:28;99277.25;;;10.45;100.00
45872;BME280;32333;55.844;-3.210;2022-09-09T14:26:56;99290.07;;;10.82;100.00
45872;BME280;32333;55.844;-3.210;2022-09-09T14:29:24;99305.78;;;9.39;100.00
45872;BME280;32333;55.844;-3.210;2022-09-09T14:31:51;99305.59;;;9.34;100.00